OLBA/BEY METAR and TAF weather

Enter ICAO airport designator
Station Type Date Time Source
OLBA METAR 2019/08/20 10:00 UTC NOAA

OLBA 201000Z 25009KT 8000 FEW026 30/21 Q1013 NOSIG


Station Type Date Time Source
OLBA Decoded METAR 2019/08/20 10:00 UTC NOAA

Beyrouth Aeroport , Lebanon (OLBA) 33-49N 035-29E 19M
Aug 20, 2019 - 06:00 AM EDT / 2019.08.20 1000 UTC
Wind: from the WSW (250 degrees) at 10 MPH (9 KT):0
Visibility: 4 mile(s):0
Sky conditions: mostly clear
Temperature: 86 F (30 C)
Dew Point: 69 F (21 C)
Relative Humidity: 58%
Pressure (altimeter): 29.91 in. Hg (1013 hPa)
ob: OLBA 201000Z 25009KT 8000 FEW026 30/21 Q1013 NOSIG
cycle: 10

Station Type Date Time Source
OLBA TAF 2019/08/20 12:58 UTC NOAA

TAF OLBA 201000Z 2012/2118 24010KT 8000 SCT026
TEMPO 2012/2018 5000 BR SCT026
BECMG 2018/2021 18010KT
BECMG 2106/2109 23008KT

Example: see airport list